Hovedside
METAR-TAF:

METAR-TAF

Lufthavner :

Göteborg-Landvetter lufthavn

Göteborg-Landvetter, Sverige

breddegrad: 57-40N, lengdegrad: 012-18E, høyde over havet: 169 m

Gjeldene værobservasjon

Denne rapporten ble laget for 15 minutter siden, klokken 11:20 UTC
Vind 12 kt fra Vest-sørvest
Temperatur 16°C
Luftfuktighet 63%
Trykk 1011 hPa
Sikt 10 km eller mer
Brutte skyer i en høyde av 2400 ft

METAR: ESGG 191120Z 25012KT 9999 BKN024 16/09 Q1011

Tid: 13:35 (11:35 UTC)

Varsel

Denne rapporten ble laget for 3 timer og 5 minutter siden, klokken 08:30 UTC
Varsel gyldig fra 19. klokken 09 UTC til 20. klokken 09 UTC
Vind 12 kt fra Vest-sørvest
Sikt 10 km eller mer
Brutte skyer i en høyde av 2000 ft
Blir
fra 19. klokken 18 UTC til 19. klokken 21 UTC
Vind 3 kt fra skiftende retning
Blir
fra 20. klokken 07 UTC til 20. klokken 09 UTC
Vind 10 kt fra Vest

TAF: ESGG 190830Z 1909/2009 24012KT 9999 BKN020 BECMG 1918/1921 VRB03KT BECMG 2007/2009 27010KT

Værobservasjoner og værvarsel for over 4000 flyplasser (METAR- og TAF-rapporter).

Tilgjengelige stasjoner er representert av de røde og gule prikkene på kartet.

Hold musepekeren over prikken for å se navnet på stasjonen.

Klikk så for å se værobservasjoner og -varsler.

For å forandre kartet kan du klikke på den grønne knappen med svart kryss for å zoome inn, på den grønne knappen med strek for å zoome ut, eller på de grønne pilene for å se tilstøtende kart.


METAR-TAF: